createdAt,value
2023-01-02T00:01:31.497Z,3.60
2023-01-02T00:03:58.876Z,3.80
2023-01-02T00:06:26.484Z,3.63
2023-01-02T00:08:53.680Z,3.40
2023-01-02T00:11:20.817Z,3.03
2023-01-02T00:13:47.969Z,3.80
2023-01-02T00:16:15.122Z,3.47
2023-01-02T00:18:42.321Z,3.70
2023-01-02T00:21:09.491Z,3.37
2023-01-02T00:23:36.857Z,3.47
2023-01-02T00:26:04.389Z,3.63
2023-01-02T00:28:31.835Z,3.53
2023-01-02T00:31:04.929Z,3.40
2023-01-02T00:33:32.370Z,3.77
2023-01-02T00:36:02.943Z,3.43
2023-01-02T00:38:30.041Z,3.40
2023-01-02T00:40:57.173Z,3.53
2023-01-02T00:43:24.374Z,3.90
2023-01-02T00:45:51.553Z,3.73
2023-01-02T00:48:18.704Z,4.17
2023-01-02T00:50:46.058Z,3.80
2023-01-02T00:53:13.151Z,3.50
2023-01-02T00:55:40.262Z,4.30
2023-01-02T00:58:07.419Z,3.43
2023-01-02T01:00:34.581Z,3.70
2023-01-02T01:03:02.088Z,4.10
2023-01-02T01:05:29.688Z,4.03
2023-01-02T01:07:58.069Z,3.20
2023-01-02T01:10:26.806Z,3.30
2023-01-02T01:12:54.053Z,3.50
2023-01-02T01:15:21.343Z,3.73
2023-01-02T01:17:48.459Z,4.10
2023-01-02T01:20:15.628Z,4.07
2023-01-02T01:22:42.817Z,3.63
2023-01-02T01:25:10.269Z,3.97
2023-01-02T01:27:37.606Z,3.50
2023-01-02T01:30:07.109Z,3.63
2023-01-02T01:32:34.914Z,3.30
2023-01-02T01:35:02.194Z,3.90
2023-01-02T01:37:29.417Z,3.80
2023-01-02T01:39:57.063Z,3.90
2023-01-02T01:42:24.810Z,4.30
2023-01-02T01:44:55.050Z,3.57
2023-01-02T01:47:40.175Z,3.43
2023-01-02T01:50:27.648Z,3.47
2023-01-02T01:53:08.217Z,3.73
2023-01-02T01:55:42.136Z,3.50
2023-01-02T01:58:15.168Z,2.97
2023-01-02T02:00:43.641Z,3.67
2023-01-02T02:03:21.820Z,3.47
2023-01-02T02:05:49.363Z,3.73
2023-01-02T02:08:36.552Z,3.50
2023-01-02T02:11:06.079Z,3.27
2023-01-02T02:13:34.170Z,3.50
2023-01-02T02:16:16.309Z,3.20
2023-01-02T02:19:55.671Z,3.50
2023-01-02T02:23:38.080Z,3.50
2023-01-02T02:27:15.985Z,4.00
2023-01-02T02:30:12.013Z,3.37
2023-01-02T02:32:53.394Z,3.27
2023-01-02T02:36:04.156Z,4.07
2023-01-02T02:38:50.798Z,3.13
2023-01-02T02:41:45.988Z,3.43
2023-01-02T02:44:35.854Z,3.60
2023-01-02T02:47:16.104Z,3.50
2023-01-02T02:49:56.940Z,3.40
2023-01-02T02:52:35.080Z,3.60
2023-01-02T02:55:11.918Z,3.27
2023-01-02T02:57:42.578Z,3.40
2023-01-02T03:00:17.113Z,2.93
2023-01-02T03:02:44.411Z,3.40
2023-01-02T03:05:31.340Z,3.30
2023-01-02T03:08:24.013Z,3.57
2023-01-02T03:11:01.299Z,2.83
2023-01-02T03:14:07.592Z,3.27
2023-01-02T03:16:42.159Z,3.27
2023-01-02T03:19:32.048Z,3.33
2023-01-02T03:22:21.643Z,3.30
2023-01-02T03:24:55.333Z,3.20
2023-01-02T03:27:30.193Z,3.20
2023-01-02T03:30:22.420Z,3.00
2023-01-02T03:33:19.804Z,3.00
2023-01-02T03:35:54.281Z,2.93
2023-01-02T03:38:52.644Z,2.90
2023-01-02T03:41:36.017Z,2.80
2023-01-02T03:44:07.663Z,2.87
2023-01-02T03:47:04.013Z,3.03
2023-01-02T03:49:37.332Z,2.80
2023-01-02T03:52:04.905Z,2.53
2023-01-02T03:54:32.376Z,3.30
2023-01-02T03:57:28.547Z,3.03
2023-01-02T04:00:17.277Z,3.10
2023-01-02T04:03:22.487Z,3.20
2023-01-02T04:06:09.417Z,2.87
2023-01-02T04:09:12.119Z,3.20
2023-01-02T04:11:46.722Z,3.50
2023-01-02T04:14:32.630Z,2.87
2023-01-02T04:17:02.181Z,2.80
2023-01-02T04:19:56.860Z,2.87
2023-01-02T04:22:41.910Z,3.40
2023-01-02T04:25:18.510Z,3.13
2023-01-02T04:27:57.598Z,3.23
2023-01-02T04:30:27.060Z,3.13
2023-01-02T04:32:56.713Z,3.07
2023-01-02T04:35:25.040Z,3.40
2023-01-02T04:37:52.285Z,3.00
2023-01-02T04:40:30.577Z,3.27
2023-01-02T04:42:58.339Z,3.17
2023-01-02T04:45:25.465Z,3.27
2023-01-02T04:47:52.544Z,3.30
2023-01-02T04:50:19.896Z,3.33
2023-01-02T04:52:46.944Z,3.20
2023-01-02T04:55:14.223Z,3.50
2023-01-02T04:57:41.383Z,3.40
2023-01-02T05:00:10.044Z,3.47
2023-01-02T05:02:39.464Z,3.40
2023-01-02T05:05:09.231Z,3.20
2023-01-02T05:07:39.641Z,3.40
2023-01-02T05:10:08.277Z,3.50
2023-01-02T05:12:37.558Z,3.20
2023-01-02T05:15:08.376Z,3.20
2023-01-02T05:17:42.257Z,3.23
2023-01-02T05:20:13.350Z,3.00
2023-01-02T05:23:02.795Z,3.20
2023-01-02T05:25:35.660Z,3.40
2023-01-02T05:28:04.504Z,2.93
2023-01-02T05:30:31.707Z,3.10
2023-01-02T05:32:58.847Z,3.53
2023-01-02T05:35:32.092Z,3.60
2023-01-02T05:37:59.943Z,3.40
2023-01-02T05:40:27.079Z,3.33
2023-01-02T05:42:58.169Z,2.90
2023-01-02T05:45:27.005Z,2.90
2023-01-02T05:47:54.217Z,3.07
2023-01-02T05:50:21.320Z,3.20
2023-01-02T05:52:48.374Z,3.37
2023-01-02T05:55:15.637Z,3.57
2023-01-02T05:57:42.831Z,3.27
2023-01-02T06:00:11.291Z,3.20
2023-01-02T06:02:38.438Z,3.50
2023-01-02T06:05:06.545Z,2.67
2023-01-02T06:07:33.870Z,3.20
2023-01-02T06:10:00.914Z,3.20
2023-01-02T06:12:27.957Z,3.80
2023-01-02T06:14:54.985Z,6.20
2023-01-02T06:17:22.582Z,2.80
2023-01-02T06:19:53.938Z,3.50
2023-01-02T06:22:21.422Z,3.03
2023-01-02T06:24:48.533Z,3.67
2023-01-02T06:27:15.622Z,2.50
2023-01-02T06:29:42.658Z,2.80
2023-01-02T06:32:09.677Z,3.10
2023-01-02T06:34:36.681Z,3.20
2023-01-02T06:37:09.544Z,3.00
2023-01-02T06:39:37.758Z,2.90
2023-01-02T06:42:07.214Z,3.10
2023-01-02T06:44:34.678Z,2.80
2023-01-02T06:47:01.684Z,3.17
2023-01-02T06:49:28.813Z,3.00
2023-01-02T06:51:55.806Z,3.20
2023-01-02T06:54:22.856Z,3.07
2023-01-02T06:56:49.836Z,3.37
2023-01-02T06:59:17.103Z,2.90
2023-01-02T07:01:44.399Z,3.27
2023-01-02T07:04:16.904Z,3.13
2023-01-02T07:06:44.061Z,4.33
2023-01-02T07:09:11.228Z,3.33
2023-01-02T07:11:39.402Z,3.13
2023-01-02T07:14:08.982Z,2.97
2023-01-02T07:16:36.170Z,2.47
2023-01-02T07:19:03.316Z,3.00
2023-01-02T07:21:31.209Z,2.50
2023-01-02T07:23:58.330Z,2.57
2023-01-02T07:26:25.328Z,2.50
2023-01-02T07:28:52.449Z,2.30
2023-01-02T07:31:21.172Z,2.60
2023-01-02T07:33:49.478Z,2.27
2023-01-02T07:36:22.530Z,2.57
2023-01-02T07:38:57.551Z,2.60
2023-01-02T07:41:26.229Z,2.37
2023-01-02T07:43:58.339Z,2.50
2023-01-02T07:46:25.965Z,2.87
2023-01-02T07:48:53.373Z,2.40
2023-01-02T07:51:26.602Z,2.47
2023-01-02T07:53:55.272Z,2.73
2023-01-02T07:56:22.474Z,2.40
2023-01-02T07:58:50.393Z,2.10
2023-01-02T08:01:20.849Z,2.30
2023-01-02T08:03:48.526Z,2.20
2023-01-02T08:06:18.044Z,1.93
2023-01-02T08:08:45.682Z,2.63
2023-01-02T08:11:21.126Z,1.97
2023-01-02T08:13:49.272Z,2.30
2023-01-02T08:16:20.463Z,2.73
2023-01-02T08:18:53.803Z,2.53
2023-01-02T08:21:22.417Z,2.53
2023-01-02T08:23:49.570Z,2.07
2023-01-02T08:26:17.079Z,1.90
2023-01-02T08:28:44.726Z,1.83
2023-01-02T08:31:20.549Z,1.70
2023-01-02T08:33:47.872Z,2.10
2023-01-02T08:36:15.033Z,2.20
2023-01-02T08:38:43.026Z,2.20
2023-01-02T08:41:10.292Z,2.23
2023-01-02T08:43:38.347Z,2.10
2023-01-02T08:46:08.435Z,1.93
2023-01-02T08:48:36.744Z,2.10
2023-01-02T08:51:05.602Z,2.17
2023-01-02T08:53:32.714Z,1.70
2023-01-02T08:56:29.349Z,1.87
2023-01-02T08:59:10.003Z,2.20
2023-01-02T09:01:38.536Z,2.03
2023-01-02T09:04:11.994Z,2.30
2023-01-02T09:06:42.405Z,1.77
2023-01-02T09:09:13.112Z,1.83
2023-01-02T09:11:50.290Z,2.40
2023-01-02T09:14:20.916Z,2.10
2023-01-02T09:16:49.842Z,2.00
2023-01-02T09:19:17.565Z,1.53
2023-01-02T09:21:44.904Z,1.67
2023-01-02T09:24:13.250Z,2.10
2023-01-02T09:26:41.834Z,1.70
2023-01-02T09:29:11.829Z,2.03
2023-01-02T09:31:40.559Z,2.00
2023-01-02T09:36:35.565Z,1.77
2023-01-02T09:39:04.328Z,1.50
2023-01-02T09:42:00.129Z,1.90
2023-01-02T09:44:44.513Z,1.77
2023-01-02T09:47:11.354Z,1.60
2023-01-02T09:50:00.680Z,1.87
2023-01-02T09:52:45.720Z,1.93
2023-01-02T09:55:43.289Z,2.00
2023-01-02T09:58:41.265Z,1.70
2023-01-02T10:01:22.256Z,1.93
2023-01-02T10:04:26.124Z,2.03
2023-01-02T10:07:37.102Z,2.07
2023-01-02T10:10:12.903Z,2.00
2023-01-02T10:12:54.895Z,1.70
2023-01-02T10:15:29.197Z,1.90
2023-01-02T10:18:29.910Z,1.53
2023-01-02T10:21:15.552Z,1.87
2023-01-02T10:24:11.100Z,1.70
2023-01-02T10:26:44.388Z,1.03
2023-01-02T10:29:33.745Z,1.73
2023-01-02T10:32:19.676Z,1.57
2023-01-02T10:35:22.314Z,1.73
2023-01-02T10:37:49.623Z,1.53
2023-01-02T10:40:16.830Z,1.67
2023-01-02T10:42:44.601Z,1.97
2023-01-02T10:45:17.413Z,1.60
2023-01-02T10:47:44.958Z,1.40
2023-01-02T10:50:25.594Z,1.77
2023-01-02T10:53:09.974Z,1.60
2023-01-02T10:55:43.677Z,1.70
2023-01-02T10:58:32.461Z,1.30
2023-01-02T11:01:14.307Z,2.03
2023-01-02T11:03:41.501Z,1.00
2023-01-02T11:06:38.999Z,1.73
2023-01-02T11:09:22.513Z,1.80
2023-01-02T11:12:09.050Z,1.80
2023-01-02T11:14:38.371Z,1.57
2023-01-02T11:17:24.989Z,1.60
2023-01-02T11:19:56.571Z,1.50
2023-01-02T11:22:36.081Z,1.30
2023-01-02T11:25:43.002Z,1.47
2023-01-02T11:28:29.497Z,1.80
2023-01-02T11:31:14.126Z,1.63
2023-01-02T11:33:41.686Z,1.40
2023-01-02T11:36:11.579Z,1.27
2023-01-02T11:38:53.895Z,2.20
2023-01-02T11:41:56.117Z,1.60
2023-01-02T11:44:44.324Z,1.80
2023-01-02T11:47:13.509Z,1.50
2023-01-02T11:49:49.292Z,1.77
2023-01-02T11:52:30.733Z,2.13
2023-01-02T11:55:37.344Z,1.87
2023-01-02T11:58:36.231Z,2.23
2023-01-02T12:01:38.172Z,1.83
2023-01-02T12:04:05.961Z,1.80
2023-01-02T12:07:08.927Z,2.37
2023-01-02T12:10:08.712Z,1.73
2023-01-02T12:12:45.990Z,2.03
2023-01-02T12:16:11.299Z,2.10
2023-01-02T12:19:12.205Z,2.17
2023-01-02T12:22:07.152Z,2.37
2023-01-02T12:25:11.310Z,1.73
2023-01-02T12:28:12.564Z,1.70
2023-01-02T12:31:00.915Z,1.50
2023-01-02T12:34:07.728Z,1.37
2023-01-02T12:36:59.862Z,1.47
2023-01-02T12:40:02.218Z,1.60
2023-01-02T12:43:13.131Z,1.77
2023-01-02T12:46:20.139Z,1.80
2023-01-02T12:49:28.056Z,1.83
2023-01-02T12:52:34.334Z,1.80
2023-01-02T12:55:58.021Z,2.00
2023-01-02T12:58:52.979Z,2.07
2023-01-02T13:01:59.849Z,1.80
2023-01-02T13:04:54.792Z,2.10
2023-01-02T13:07:55.898Z,1.70
2023-01-02T13:10:28.800Z,2.30
2023-01-02T13:13:00.596Z,2.00
2023-01-02T13:15:36.270Z,3.77
2023-01-02T13:18:37.565Z,2.00
2023-01-02T13:21:44.123Z,3.13
2023-01-02T13:24:16.620Z,2.33
2023-01-02T13:26:44.612Z,2.30
2023-01-02T13:29:11.633Z,3.50
2023-01-02T13:31:49.033Z,16.77
2023-01-02T13:34:28.781Z,20.77
2023-01-02T13:37:19.097Z,11.70
2023-01-02T13:39:59.486Z,4.70
2023-01-02T13:42:55.102Z,4.77
2023-01-02T13:45:31.115Z,2.30
2023-01-02T13:48:07.430Z,9.90
2023-01-02T13:50:38.788Z,1.93
2023-01-02T13:53:11.869Z,5.37
2023-01-02T13:55:41.880Z,2.40
2023-01-02T13:58:15.206Z,2.47
2023-01-02T14:00:55.727Z,2.23
2023-01-02T14:03:23.496Z,1.97
2023-01-02T14:06:01.403Z,2.10
2023-01-02T14:09:04.566Z,2.33
2023-01-02T14:12:03.056Z,1.80
2023-01-02T14:14:46.253Z,2.00
2023-01-02T14:18:11.824Z,1.70
2023-01-02T14:20:44.824Z,2.13
2023-01-02T14:23:31.690Z,2.50
2023-01-02T14:25:59.212Z,1.80
2023-01-02T14:28:36.091Z,1.60
2023-01-02T14:31:32.176Z,1.80
2023-01-02T14:34:00.320Z,2.20
2023-01-02T14:36:47.099Z,1.73
2023-01-02T14:39:35.468Z,1.40
2023-01-02T14:42:44.737Z,1.33
2023-01-02T14:45:19.735Z,1.33
2023-01-02T14:47:58.715Z,1.47
2023-01-02T14:50:33.352Z,1.43
2023-01-02T14:53:20.209Z,1.70
2023-01-02T14:55:49.440Z,1.77
2023-01-02T14:58:41.827Z,1.80
2023-01-02T15:01:13.025Z,1.87
2023-01-02T15:04:25.972Z,1.93
2023-01-02T15:07:37.528Z,1.60
2023-01-02T15:10:22.702Z,1.87
2023-01-02T15:13:05.248Z,1.70
2023-01-02T15:15:53.728Z,2.43
2023-01-02T15:18:33.674Z,1.80
2023-01-02T15:21:10.667Z,1.80
2023-01-02T15:23:47.633Z,1.53
2023-01-02T15:26:34.818Z,1.47
2023-01-02T15:29:26.946Z,1.20
2023-01-02T15:31:59.775Z,2.23
2023-01-02T15:34:33.522Z,1.43
2023-01-02T15:37:07.606Z,1.17
2023-01-02T15:39:41.091Z,1.03
2023-01-02T15:42:31.028Z,1.50
2023-01-02T15:45:10.596Z,0.77
2023-01-02T15:47:51.022Z,0.80
2023-01-02T15:50:29.148Z,0.70
2023-01-02T15:53:07.467Z,0.60
2023-01-02T15:55:40.635Z,0.60
2023-01-02T15:58:16.489Z,0.57
2023-01-02T16:00:46.296Z,0.50
2023-01-02T16:04:01.966Z,0.40
2023-01-02T16:06:41.256Z,0.67
2023-01-02T16:09:34.041Z,0.70
2023-01-02T16:12:04.144Z,0.90
2023-01-02T16:14:46.761Z,0.60
2023-01-02T16:17:32.736Z,0.80
2023-01-02T16:20:07.521Z,0.40
2023-01-02T16:22:57.729Z,1.07
2023-01-02T16:25:35.569Z,0.60
2023-01-02T16:28:34.626Z,0.60
2023-01-02T16:31:08.122Z,0.50
2023-01-02T16:33:35.503Z,0.50
2023-01-02T16:36:05.549Z,0.30
2023-01-02T16:38:51.715Z,0.40
2023-01-02T16:41:35.393Z,0.50
2023-01-02T16:44:12.308Z,0.50
2023-01-02T16:46:45.068Z,0.30
2023-01-02T16:49:19.415Z,0.30
2023-01-02T16:51:53.071Z,0.40
2023-01-02T16:54:21.091Z,0.30
2023-01-02T16:56:49.864Z,0.33
2023-01-02T16:59:17.079Z,0.50
2023-01-02T17:01:44.204Z,0.40
2023-01-02T17:04:15.212Z,0.60
2023-01-02T17:06:42.429Z,0.50
2023-01-02T17:09:09.623Z,0.30
2023-01-02T17:11:59.949Z,0.33
2023-01-02T17:14:30.415Z,0.30
2023-01-02T17:16:58.914Z,0.30
2023-01-02T17:19:26.377Z,0.30
2023-01-02T17:21:53.626Z,0.30
2023-01-02T17:24:20.910Z,0.27
2023-01-02T17:26:48.067Z,0.30
2023-01-02T17:29:15.322Z,0.40
2023-01-02T17:31:42.604Z,0.10
2023-01-02T17:34:09.772Z,0.17
2023-01-02T17:36:37.070Z,0.27
2023-01-02T17:39:04.336Z,0.20
2023-01-02T17:41:31.504Z,0.20
2023-01-02T17:44:02.559Z,0.10
2023-01-02T17:49:21.042Z,0.10
2023-01-02T17:51:48.211Z,0.23
2023-01-02T17:54:15.784Z,0.40
2023-01-02T17:56:43.218Z,0.30
2023-01-02T17:59:10.541Z,0.30
2023-01-02T18:01:37.880Z,0.37
2023-01-02T18:04:05.378Z,0.40
2023-01-02T18:06:32.906Z,0.37
2023-01-02T18:08:59.999Z,0.50
2023-01-02T18:11:27.304Z,0.27
2023-01-02T18:13:56.301Z,0.30
2023-01-02T18:16:40.443Z,0.23
2023-01-02T18:19:22.436Z,0.20
2023-01-02T18:21:50.784Z,0.30
2023-01-02T18:24:30.714Z,0.20
2023-01-02T18:27:32.548Z,0.20
2023-01-02T18:30:25.777Z,0.43
2023-01-02T18:33:12.456Z,0.20
2023-01-02T18:35:58.503Z,0.33
2023-01-02T18:38:39.598Z,0.40
2023-01-02T18:41:28.020Z,0.30
2023-01-02T18:44:27.507Z,0.33
2023-01-02T18:47:14.965Z,0.40
2023-01-02T18:49:44.025Z,0.30
2023-01-02T18:52:10.950Z,0.30
2023-01-02T18:54:46.737Z,0.20
2023-01-02T18:57:21.410Z,0.17
2023-01-02T18:59:51.807Z,0.30
2023-01-02T19:03:03.310Z,0.30
2023-01-02T19:05:39.656Z,0.27
2023-01-02T19:08:22.968Z,0.30
2023-01-02T19:10:58.753Z,0.20
2023-01-02T19:13:35.273Z,0.20
2023-01-02T19:16:25.734Z,0.20
2023-01-02T19:18:56.156Z,0.20
2023-01-02T19:21:31.899Z,0.40
2023-01-02T19:24:04.597Z,0.20
2023-01-02T19:26:48.279Z,0.33
2023-01-02T19:29:33.311Z,0.30
2023-01-02T19:32:03.082Z,0.10
2023-01-02T19:34:55.199Z,0.30
2023-01-02T19:37:40.763Z,0.30
2023-01-02T19:40:19.313Z,0.30
2023-01-02T19:42:51.687Z,0.20
2023-01-02T19:45:26.276Z,0.40
2023-01-02T19:47:54.316Z,0.40
2023-01-02T19:50:26.709Z,0.43
2023-01-02T19:52:54.378Z,0.40
2023-01-02T19:55:21.709Z,0.30
2023-01-02T19:57:48.879Z,0.20
2023-01-02T20:00:19.499Z,0.37
2023-01-02T20:02:52.369Z,0.33
2023-01-02T20:05:22.546Z,0.30
2023-01-02T20:07:53.112Z,0.20
2023-01-02T20:10:22.091Z,0.50
2023-01-02T20:12:49.955Z,0.40
2023-01-02T20:15:25.009Z,0.30
2023-01-02T20:17:53.958Z,0.40
2023-01-02T20:20:26.204Z,0.40
2023-01-02T20:22:54.929Z,0.30
2023-01-02T20:25:26.079Z,0.50
2023-01-02T20:27:56.774Z,0.40
2023-01-02T20:30:25.258Z,0.57
2023-01-02T20:32:54.301Z,0.50
2023-01-02T20:35:22.426Z,0.50
2023-01-02T20:37:52.003Z,0.40
2023-01-02T20:40:19.300Z,0.57
2023-01-02T20:42:46.476Z,0.30
2023-01-02T20:45:13.573Z,0.30
2023-01-02T20:47:40.708Z,0.40
2023-01-02T20:50:09.287Z,0.43
2023-01-02T20:52:36.534Z,0.30
2023-01-02T20:55:03.988Z,0.50
2023-01-02T20:57:31.191Z,0.40
2023-01-02T20:59:58.411Z,0.50
2023-01-02T21:02:27.851Z,0.40
2023-01-02T21:04:55.506Z,0.40
2023-01-02T21:07:22.670Z,0.40
2023-01-02T21:09:49.859Z,0.37
2023-01-02T21:12:35.738Z,0.50
2023-01-02T21:15:02.941Z,0.60
2023-01-02T21:17:30.254Z,0.40
2023-01-02T21:19:57.598Z,0.60
2023-01-02T21:22:24.848Z,0.80
2023-01-02T21:24:52.103Z,0.60
2023-01-02T21:27:19.274Z,0.50
2023-01-02T21:29:46.613Z,0.70
2023-01-02T21:32:13.798Z,0.90
2023-01-02T21:34:40.842Z,0.53
2023-01-02T21:37:08.139Z,0.77
2023-01-02T21:39:35.331Z,0.80
2023-01-02T21:42:17.724Z,0.50
2023-01-02T21:44:47.415Z,0.60
2023-01-02T21:47:16.841Z,0.77
2023-01-02T21:49:44.871Z,0.60
2023-01-02T21:52:12.250Z,0.60
2023-01-02T21:54:39.444Z,0.83
2023-01-02T21:57:06.703Z,0.70
2023-01-02T21:59:34.617Z,0.57
2023-01-02T22:02:04.023Z,0.80
2023-01-02T22:04:31.582Z,1.13
2023-01-02T22:09:45.965Z,0.70
2023-01-02T22:12:13.249Z,0.70
2023-01-02T22:14:40.380Z,0.63
2023-01-02T22:17:10.523Z,0.90
2023-01-02T22:19:38.679Z,0.70
2023-01-02T22:22:06.035Z,0.87
2023-01-02T22:24:36.588Z,0.50
2023-01-02T22:27:09.965Z,0.70
2023-01-02T22:30:18.580Z,0.90
2023-01-02T22:32:24.642Z,0.70
2023-01-02T22:34:52.644Z,0.80
2023-01-02T22:37:22.985Z,0.90
2023-01-02T22:39:51.044Z,0.80
2023-01-02T22:43:04.779Z,1.00
2023-01-02T22:45:49.706Z,1.07
2023-01-02T22:48:26.597Z,0.93
2023-01-02T22:50:58.420Z,0.80
2023-01-02T22:53:36.668Z,0.80
2023-01-02T22:56:20.418Z,0.70
2023-01-02T22:58:49.676Z,1.00
2023-01-02T23:01:42.343Z,1.00
2023-01-02T23:04:20.533Z,1.00
2023-01-02T23:07:13.997Z,1.07
2023-01-02T23:09:38.896Z,1.00
2023-01-02T23:12:06.380Z,0.80
2023-01-02T23:14:33.559Z,0.93
2023-01-02T23:17:19.360Z,1.00
2023-01-02T23:19:46.640Z,1.07
2023-01-02T23:22:13.728Z,1.17
2023-01-02T23:24:40.947Z,1.10
2023-01-02T23:27:12.105Z,0.90
2023-01-02T23:29:40.859Z,1.10
2023-01-02T23:32:10.392Z,1.33
2023-01-02T23:34:37.914Z,1.30
2023-01-02T23:37:05.368Z,0.97
2023-01-02T23:39:34.732Z,1.30
2023-01-02T23:42:02.666Z,1.50
2023-01-02T23:44:29.806Z,1.50
2023-01-02T23:46:57.371Z,1.17
2023-01-02T23:49:24.881Z,1.40
2023-01-02T23:51:53.808Z,1.50
2023-01-02T23:54:21.612Z,1.20
2023-01-02T23:56:51.241Z,1.63
2023-01-02T23:59:24.115Z,1.50
